CheckWX is a tool to help pilots better visualize weather data.  It is not intended as a substitute for an official pre-flight weather briefing.

01:03:02 UTC

KBVU METAR
Boulder City Municipal Airport
Boulder City, Nevada, USA
Current

28 mins ago

KBVU 200035Z AUTO 16019KT 10SM CLR 39/00 A2982 RMK AO2
Observed
Aug-20 @ 00:35 UTC
Wind
  • 160° at 19 KTS
Visibility
10 SM
Flight Rules
VFR
Cloud Levels
  • Clear skies
Temperature
39°C / 102°F
Dewpoint
C / 32°F
Humidity
9%
Altimeter
29.82" Hg
Pressure
1009.82 hPa
Previous

48 mins ago

KBVU 200015Z AUTO 15016G25KT 10SM CLR 39/00 A2983 RMK AO2
Observed
Aug-20 @ 00:15 UTC
Wind
  • 150° at 16 KTS
  • Gusting to 25 KTS
Visibility
10 SM
Flight Rules
VFR
Cloud Levels
  • Clear skies
Temperature
39°C / 102°F
Dewpoint
C / 32°F
Humidity
9%
Altimeter
29.83" Hg
Pressure
1010.12 hPa
Previous

1 hour ago

KBVU 192355Z AUTO 14019G25KT 10SM CLR 39/M00 A2983 RMK AO2
Observed
Aug-19 @ 23:55 UTC
Wind
  • 140° at 19 KTS
  • Gusting to 25 KTS
Visibility
10 SM
Flight Rules
VFR
Cloud Levels
  • Clear skies
Temperature
39°C / 102°F
Dewpoint
C / 32°F
Humidity
9%
Altimeter
29.83" Hg
Pressure
1010.12 hPa